Time;durP1;ratioP1;P1;durP2;ratioP2;P2;SDS_P1;SDS_P2;PMS_P1;PMS_P2;Temp;Humidity;BMP_temperature;BMP_pressure;BME280_temperature;BME280_humidity;BME280_pressure;Samples;Min_cycle;Max_cycle;Signal;HPM_P1;HPM_P2
2022/04/15 00:01:23;;;;;;;8.93;5.07;;;8.80;99.90;;;;;;5051252;28;20033;-74
2022/04/15 00:03:52;;;;;;;9.55;4.97;;;8.90;99.90;;;;;;5052612;28;20120;-74
2022/04/15 00:06:18;;;;;;;7.88;5.80;;;8.90;99.90;;;;;;5051423;28;20091;-74
2022/04/15 00:08:44;;;;;;;9.70;6.03;;;8.90;99.90;;;;;;5052225;28;20051;-74
2022/04/15 00:11:10;;;;;;;8.85;5.82;;;8.90;99.90;;;;;;5052131;28;20411;-74
2022/04/15 00:13:36;;;;;;;10.18;5.50;;;8.90;99.90;;;;;;5050841;28;20505;-74
2022/04/15 00:16:04;;;;;;;8.18;5.03;;;9.00;99.90;;;;;;5051249;28;20040;-74
2022/04/15 00:18:31;;;;;;;9.75;5.63;;;9.00;99.90;;;;;;5052250;28;20522;-74
2022/04/15 00:20:56;;;;;;;12.63;5.68;;;9.00;99.90;;;;;;5052002;28;20049;-74
2022/04/15 00:23:22;;;;;;;12.68;6.45;;;8.90;99.90;;;;;;5050853;28;20044;-74
2022/04/15 00:25:48;;;;;;;7.30;5.10;;;9.00;99.90;;;;;;5052192;28;20072;-74
2022/04/15 00:28:15;;;;;;;12.70;6.07;;;8.90;99.90;;;;;;5051952;28;20036;-74
2022/04/15 00:30:40;;;;;;;8.57;5.75;;;9.00;99.90;;;;;;5051477;28;20039;-74
2022/04/15 00:33:06;;;;;;;10.95;7.25;;;9.00;99.90;;;;;;5052054;28;20033;-74
2022/04/15 00:35:32;;;;;;;10.52;5.47;;;9.00;99.90;;;;;;5050977;28;20036;-74
2022/04/15 00:37:57;;;;;;;14.95;6.50;;;9.00;99.90;;;;;;5051990;28;20064;-74
2022/04/15 00:40:23;;;;;;;13.68;5.78;;;9.00;99.90;;;;;;5051676;28;20041;-74
2022/04/15 00:42:49;;;;;;;9.10;5.28;;;9.10;99.90;;;;;;5050364;28;20140;-74
2022/04/15 00:45:14;;;;;;;11.52;5.32;;;9.00;99.90;;;;;;5050491;28;20047;-74
2022/04/15 00:48:01;;;;;;;7.03;5.70;;;9.00;99.90;;;;;;5033922;28;20048;-74
2022/04/15 00:50:31;;;;;;;11.15;5.57;;;9.10;99.90;;;;;;5051474;28;20094;-74
2022/04/15 00:53:07;;;;;;;8.88;4.68;;;9.00;99.90;;;;;;5051770;28;20033;-74
2022/04/15 00:55:33;;;;;;;11.70;4.75;;;9.00;99.90;;;;;;5051862;28;20041;-74
2022/04/15 00:58:01;;;;;;;8.90;4.68;;;9.00;99.90;;;;;;5050574;28;20423;-74
2022/04/15 01:00:29;;;;;;;7.55;4.38;;;9.00;99.90;;;;;;5051439;28;20505;-74
2022/04/15 01:03:00;;;;;;;7.30;5.65;;;8.90;99.90;;;;;;5050210;28;20056;-74
2022/04/15 01:05:27;;;;;;;14.10;5.00;;;9.00;99.90;;;;;;5051515;28;20069;-74
2022/04/15 01:07:56;;;;;;;9.52;5.63;;;9.00;99.90;;;;;;5051508;28;20045;-74
2022/04/15 01:10:25;;;;;;;7.97;5.50;;;9.00;99.90;;;;;;5049854;28;20068;-74
2022/04/15 01:12:56;;;;;;;8.25;5.90;;;9.10;99.90;;;;;;5051214;28;20508;-74
2022/04/15 01:15:24;;;;;;;8.80;4.72;;;9.00;99.90;;;;;;5050200;28;20522;-74
2022/04/15 01:17:49;;;;;;;10.88;6.38;;;9.00;99.90;;;;;;5050476;28;20398;-74
2022/04/15 01:20:15;;;;;;;6.70;5.22;;;9.10;99.90;;;;;;5050001;28;20041;-74
2022/04/15 01:22:43;;;;;;;11.50;5.35;;;9.20;99.90;;;;;;5050075;28;20033;-74
2022/04/15 01:25:12;;;;;;;10.35;5.40;;;9.10;99.90;;;;;;5050387;28;20466;-74
2022/04/15 01:27:40;;;;;;;8.32;5.18;;;9.10;99.90;;;;;;5051345;28;20553;-74
2022/04/15 01:30:09;;;;;;;10.65;5.03;;;9.00;99.90;;;;;;5051034;28;20052;-74
2022/04/15 01:32:35;;;;;;;9.48;5.32;;;9.10;99.90;;;;;;5051299;28;20037;-74
2022/04/15 01:35:01;;;;;;;6.47;3.80;;;9.00;99.90;;;;;;5049981;28;20051;-74
2022/04/15 01:37:29;;;;;;;7.18;4.53;;;9.00;99.90;;;;;;5050156;28;20120;-74
2022/04/15 01:39:55;;;;;;;9.70;4.78;;;9.00;99.90;;;;;;5051254;28;20049;-75
2022/04/15 01:42:20;;;;;;;9.05;4.30;;;8.90;99.90;;;;;;5052420;28;20128;-74
2022/04/15 01:44:46;;;;;;;5.65;3.92;;;9.00;99.90;;;;;;5055147;28;20507;-74
2022/04/15 01:47:11;;;;;;;10.38;4.65;;;9.00;99.90;;;;;;5055001;28;20542;-74
2022/04/15 01:49:37;;;;;;;6.65;3.80;;;9.00;99.90;;;;;;5053662;28;20529;-74
2022/04/15 01:52:04;;;;;;;8.95;4.07;;;9.00;99.90;;;;;;5053779;28;20032;-74
2022/04/15 01:54:30;;;;;;;11.57;4.43;;;9.00;99.90;;;;;;5037212;28;20124;-74
2022/04/15 01:56:56;;;;;;;7.22;3.85;;;8.90;99.90;;;;;;5053585;28;20060;-74
2022/04/15 01:59:22;;;;;;;7.55;3.95;;;8.90;99.90;;;;;;5053534;28;20116;-74
2022/04/15 02:01:48;;;;;;;7.28;4.00;;;8.90;99.90;;;;;;5053494;28;20118;-74
2022/04/15 02:04:13;;;;;;;11.82;4.07;;;9.00;99.90;;;;;;5055057;28;20052;-74
2022/04/15 02:06:39;;;;;;;8.57;4.07;;;9.00;99.90;;;;;;5055217;28;20123;-74
2022/04/15 02:09:05;;;;;;;10.90;4.65;;;9.00;99.90;;;;;;5055059;28;20124;-74
2022/04/15 02:11:31;;;;;;;12.77;4.47;;;9.00;99.90;;;;;;5053437;28;20068;-74
2022/04/15 02:13:57;;;;;;;8.27;4.28;;;9.10;99.90;;;;;;5054887;28;20037;-74
2022/04/15 02:16:22;;;;;;;8.35;4.03;;;9.00;99.90;;;;;;5054710;28;20114;-74
2022/04/15 02:18:48;;;;;;;10.02;4.00;;;9.10;99.90;;;;;;5054465;28;20041;-75
2022/04/15 02:21:13;;;;;;;8.25;4.35;;;9.10;99.90;;;;;;5036380;28;20045;-74
2022/04/15 02:23:39;;;;;;;9.70;5.10;;;9.10;99.90;;;;;;5053138;28;20235;-74
2022/04/15 02:26:04;;;;;;;10.57;5.03;;;9.00;99.90;;;;;;5053323;28;20037;-74
2022/04/15 02:28:30;;;;;;;9.38;5.55;;;9.00;99.90;;;;;;5054229;28;20537;-74
2022/04/15 02:30:56;;;;;;;10.18;4.63;;;9.10;99.90;;;;;;5052880;28;20067;-74
2022/04/15 02:33:21;;;;;;;13.18;4.65;;;9.00;99.90;;;;;;5052888;28;20517;-74
2022/04/15 02:35:48;;;;;;;9.38;4.80;;;9.00;99.90;;;;;;5052824;28;20049;-74
2022/04/15 02:38:13;;;;;;;11.60;4.95;;;9.00;99.90;;;;;;5052837;28;20071;-74
2022/04/15 02:40:39;;;;;;;10.68;4.28;;;9.10;99.90;;;;;;5053744;28;20036;-74
2022/04/15 02:43:06;;;;;;;13.63;6.32;;;9.00;99.90;;;;;;5054211;28;20033;-74
2022/04/15 02:45:32;;;;;;;14.00;5.55;;;9.00;99.90;;;;;;5052888;28;20458;-74
2022/04/15 02:47:58;;;;;;;12.70;5.88;;;9.00;99.90;;;;;;5053839;28;20596;-74
2022/04/15 02:50:23;;;;;;;15.85;7.60;;;9.00;99.90;;;;;;5052343;28;20084;-74
2022/04/15 02:52:50;;;;;;;15.00;7.15;;;9.00;99.90;;;;;;5052232;28;20060;-74
2022/04/15 02:55:15;;;;;;;16.83;9.02;;;8.90;99.90;;;;;;5035896;28;20115;-74
2022/04/15 02:57:41;;;;;;;16.50;8.88;;;8.90;99.90;;;;;;5035899;28;20621;-74
2022/04/15 03:00:07;;;;;;;16.27;9.82;;;8.90;99.90;;;;;;5053380;28;20044;-74
2022/04/15 03:02:34;;;;;;;19.60;10.60;;;8.80;99.90;;;;;;5052153;28;20494;-74
2022/04/15 03:05:00;;;;;;;15.15;10.93;;;8.70;99.90;;;;;;5052600;28;20048;-74
2022/04/15 03:07:26;;;;;;;16.00;10.30;;;8.60;99.90;;;;;;5035610;28;20052;-74
2022/04/15 03:09:51;;;;;;;17.58;11.95;;;8.70;99.90;;;;;;5051956;28;20041;-74
2022/04/15 03:12:17;;;;;;;20.40;12.60;;;8.60;99.90;;;;;;5052267;28;20087;-74
2022/04/15 03:14:42;;;;;;;19.02;11.32;;;8.60;99.90;;;;;;5051879;28;20040;-74
2022/04/15 03:17:08;;;;;;;15.70;10.27;;;8.60;99.90;;;;;;5052256;28;20037;-74
2022/04/15 03:19:34;;;;;;;14.10;9.98;;;8.60;99.90;;;;;;5052067;28;20045;-74
2022/04/15 03:22:00;;;;;;;13.68;9.32;;;8.50;99.90;;;;;;5051674;28;20140;-74
2022/04/15 03:24:25;;;;;;;15.90;9.27;;;8.50;99.90;;;;;;5051851;28;20048;-74
2022/04/15 03:26:51;;;;;;;12.35;9.18;;;8.50;99.90;;;;;;5051960;28;20037;-74
2022/04/15 03:29:17;;;;;;;16.13;8.57;;;8.50;99.90;;;;;;5052989;28;20056;-74
2022/04/15 03:31:42;;;;;;;9.63;8.18;;;8.50;99.90;;;;;;5052974;28;20044;-74
2022/04/15 03:34:08;;;;;;;11.35;6.85;;;8.50;99.90;;;;;;5052978;28;20376;-74
2022/04/15 03:36:34;;;;;;;9.55;7.30;;;8.40;99.90;;;;;;5053092;28;20064;-74
2022/04/15 03:38:59;;;;;;;9.68;6.93;;;8.30;99.90;;;;;;5051833;28;20522;-74
2022/04/15 03:41:25;;;;;;;7.65;6.32;;;8.20;99.90;;;;;;5052586;28;20090;-74
2022/04/15 03:43:50;;;;;;;10.48;7.47;;;8.10;99.90;;;;;;5034953;28;20123;-74
2022/04/15 03:46:16;;;;;;;12.98;6.82;;;8.00;99.90;;;;;;5053059;28;20534;-74
2022/04/15 03:48:42;;;;;;;8.77;6.22;;;8.00;99.90;;;;;;5051480;28;20051;-74
2022/04/15 03:51:08;;;;;;;9.52;7.13;;;8.10;99.90;;;;;;5052645;28;20037;-74
2022/04/15 03:53:35;;;;;;;8.50;6.00;;;8.10;99.90;;;;;;5034843;28;20728;-74
2022/04/15 03:56:00;;;;;;;9.27;6.97;;;7.90;99.90;;;;;;5051374;28;20094;-74
2022/04/15 03:58:26;;;;;;;9.27;6.38;;;7.90;99.90;;;;;;5051195;28;20041;-74
2022/04/15 04:00:53;;;;;;;7.43;5.90;;;7.80;99.90;;;;;;5051190;28;20068;-74
2022/04/15 04:03:19;;;;;;;11.65;6.22;;;7.80;99.90;;;;;;5052514;28;20445;-74
2022/04/15 04:05:44;;;;;;;8.90;5.65;;;7.80;99.90;;;;;;5050790;28;20063;-74
2022/04/15 04:08:10;;;;;;;7.93;6.00;;;7.80;99.90;;;;;;5052363;28;20059;-73
2022/04/15 04:10:36;;;;;;;10.98;6.70;;;7.80;99.90;;;;;;5050648;28;20125;-74
2022/04/15 04:13:02;;;;;;;7.53;6.18;;;7.90;99.90;;;;;;5052052;28;20116;-74
2022/04/15 04:15:29;;;;;;;8.23;6.53;;;7.80;99.90;;;;;;5051277;28;20069;-74
2022/04/15 04:17:56;;;;;;;8.00;6.28;;;7.80;99.90;;;;;;5052389;28;20090;-74
2022/04/15 04:20:22;;;;;;;8.20;6.43;;;7.80;99.90;;;;;;5051841;28;20494;-74
2022/04/15 04:22:48;;;;;;;7.45;6.40;;;7.80;99.90;;;;;;5050705;28;20591;-74
2022/04/15 04:25:13;;;;;;;9.25;6.82;;;7.80;99.90;;;;;;5052028;28;20045;-74
2022/04/15 04:27:41;;;;;;;7.22;5.85;;;7.90;99.90;;;;;;5051975;28;20033;-74
2022/04/15 04:30:08;;;;;;;7.78;5.28;;;7.80;99.90;;;;;;5050388;28;20045;-74
2022/04/15 04:32:34;;;;;;;7.95;5.63;;;7.90;99.90;;;;;;5050847;28;20041;-74
2022/04/15 04:35:00;;;;;;;6.55;5.78;;;8.00;99.90;;;;;;5051902;28;20410;-74
2022/04/15 04:37:25;;;;;;;8.30;6.63;;;7.90;99.90;;;;;;5050591;28;20037;-74
2022/04/15 04:39:51;;;;;;;7.75;6.45;;;7.80;99.90;;;;;;5050492;28;20414;-74
2022/04/15 04:42:18;;;;;;;8.75;6.45;;;7.80;99.90;;;;;;5050540;28;20403;-74
2022/04/15 04:44:44;;;;;;;9.77;6.53;;;7.80;99.90;;;;;;5050451;28;20049;-74
2022/04/15 04:47:10;;;;;;;7.35;6.38;;;7.80;99.90;;;;;;5050718;28;20041;-74
2022/04/15 04:49:37;;;;;;;7.45;6.30;;;7.70;99.90;;;;;;5051759;28;20556;-74
2022/04/15 04:52:04;;;;;;;7.35;6.38;;;7.70;99.90;;;;;;5051380;28;20447;-74
2022/04/15 04:54:31;;;;;;;8.63;6.40;;;7.70;99.90;;;;;;5050046;28;20075;-74
2022/04/15 04:56:57;;;;;;;7.28;5.95;;;7.80;99.90;;;;;;5050338;28;20033;-74
2022/04/15 04:59:25;;;;;;;7.78;5.80;;;7.70;99.90;;;;;;5050379;28;20125;-74
2022/04/15 05:01:51;;;;;;;12.68;6.68;;;7.80;99.90;;;;;;5051702;28;20075;-74
2022/04/15 05:04:18;;;;;;;10.60;6.28;;;7.80;99.90;;;;;;5051551;28;20059;-74
2022/04/15 05:06:43;;;;;;;7.78;6.22;;;7.80;99.90;;;;;;5051355;28;20479;-74
2022/04/15 05:09:09;;;;;;;8.18;5.88;;;7.90;99.90;;;;;;5033728;28;20041;-74
2022/04/15 05:11:34;;;;;;;8.18;6.28;;;7.90;99.90;;;;;;5051311;28;20033;-74
2022/04/15 05:14:00;;;;;;;9.48;6.15;;;7.90;99.90;;;;;;5051388;28;20041;-74
2022/04/15 05:16:25;;;;;;;6.97;5.38;;;7.80;99.90;;;;;;5051034;28;20120;-74
2022/04/15 05:18:51;;;;;;;6.80;5.93;;;7.80;99.90;;;;;;5054498;28;20198;-74
2022/04/15 05:21:16;;;;;;;6.97;5.55;;;7.70;99.90;;;;;;5053736;28;20044;-74
2022/04/15 05:23:42;;;;;;;14.05;6.75;;;7.80;99.90;;;;;;5055528;28;20036;-74
2022/04/15 05:26:08;;;;;;;8.85;6.93;;;7.80;99.90;;;;;;5054040;28;20514;-74
2022/04/15 05:28:36;;;;;;;9.63;6.93;;;7.80;99.90;;;;;;5055294;28;20051;-74
2022/04/15 05:31:05;;;;;;;10.73;6.05;;;7.80;99.90;;;;;;5053999;28;20045;-74
2022/04/15 05:33:31;;;;;;;13.02;6.65;;;7.80;99.90;;;;;;5054006;28;20064;-74
2022/04/15 05:35:56;;;;;;;8.98;6.75;;;7.70;99.90;;;;;;5053905;28;20084;-74
2022/04/15 05:38:22;;;;;;;12.10;5.85;;;7.80;99.90;;;;;;5054249;28;20040;-74
2022/04/15 05:40:48;;;;;;;7.68;5.75;;;7.70;99.90;;;;;;5053932;28;20490;-74
2022/04/15 05:43:13;;;;;;;12.85;6.45;;;7.80;99.90;;;;;;5054199;28;20132;-74
2022/04/15 05:45:39;;;;;;;8.65;6.65;;;7.80;99.90;;;;;;5053857;28;20490;-74
2022/04/15 05:48:05;;;;;;;9.93;6.85;;;7.80;99.90;;;;;;5052914;28;20065;-74
2022/04/15 05:50:30;;;;;;;10.98;6.38;;;7.80;99.90;;;;;;5058803;28;20052;-74
2022/04/15 05:52:56;;;;;;;9.63;7.70;;;7.90;99.90;;;;;;5073271;28;20047;-74
2022/04/15 05:55:21;;;;;;;10.70;7.20;;;7.90;99.90;;;;;;5073926;28;20063;-74
2022/04/15 05:57:47;;;;;;;12.30;7.57;;;7.90;99.90;;;;;;5057178;28;20032;-74
2022/04/15 06:00:13;;;;;;;11.52;8.38;;;8.00;99.90;;;;;;5074508;28;20033;-74
2022/04/15 06:02:39;;;;;;;10.52;7.57;;;7.90;99.90;;;;;;5072808;28;20058;-74
2022/04/15 06:05:05;;;;;;;9.48;7.90;;;8.00;99.90;;;;;;5066203;28;20037;-74
2022/04/15 06:07:31;;;;;;;12.18;8.55;;;8.00;99.90;;;;;;5073469;28;20078;-74
2022/04/15 06:09:58;;;;;;;14.75;7.97;;;8.10;99.90;;;;;;5074408;28;20125;-75
2022/04/15 06:12:54;;;;;;;13.32;8.90;;;8.10;99.90;;;;;;5073593;28;20040;-74
2022/04/15 06:15:18;;;;;;;12.07;8.20;;;8.20;99.90;;;;;;5073344;28;20123;-75
2022/04/15 06:17:43;;;;;;;14.57;9.57;;;8.30;99.90;;;;;;5074549;28;20102;-74
2022/04/15 06:20:10;;;;;;;15.82;9.80;;;8.20;99.90;;;;;;5072878;28;20689;-74
2022/04/15 06:22:36;;;;;;;15.65;9.23;;;8.20;99.90;;;;;;5074263;28;20072;-74
2022/04/15 06:25:02;;;;;;;13.15;9.20;;;8.30;99.90;;;;;;5074538;28;20041;-74
2022/04/15 06:27:27;;;;;;;13.30;10.15;;;8.30;99.90;;;;;;5055913;28;20113;-74
2022/04/15 06:29:53;;;;;;;13.63;9.52;;;8.30;99.90;;;;;;5074068;28;20044;-74
2022/04/15 06:32:18;;;;;;;17.90;12.27;;;8.20;99.90;;;;;;5073123;28;20421;-74
2022/04/15 06:34:44;;;;;;;20.83;12.30;;;8.20;99.90;;;;;;5072768;28;20044;-74
2022/04/15 06:37:09;;;;;;;21.05;12.52;;;8.20;99.90;;;;;;5074238;28;20432;-74
2022/04/15 06:39:35;;;;;;;19.23;12.32;;;8.20;99.90;;;;;;5073102;28;20131;-74
2022/04/15 06:42:00;;;;;;;25.23;13.25;;;8.20;99.90;;;;;;5072811;28;20082;-74
2022/04/15 06:44:26;;;;;;;23.40;13.23;;;8.10;99.90;;;;;;5072723;28;20075;-74
2022/04/15 06:46:51;;;;;;;21.88;13.43;;;8.20;99.90;;;;;;5073935;28;20040;-75
2022/04/15 06:49:20;;;;;;;22.88;13.60;;;8.30;99.90;;;;;;5074185;28;20128;-74
2022/04/15 06:51:45;;;;;;;22.60;13.73;;;8.30;99.90;;;;;;5072307;28;20127;-74
2022/04/15 06:54:11;;;;;;;22.33;13.40;;;8.30;99.90;;;;;;5072834;28;20083;-74
2022/04/15 06:56:36;;;;;;;23.10;14.50;;;8.30;99.90;;;;;;5073844;28;20044;-75
2022/04/15 06:59:02;;;;;;;18.98;12.55;;;8.40;99.90;;;;;;5073795;28;20047;-75
2022/04/15 07:01:29;;;;;;;22.70;13.20;;;8.40;99.90;;;;;;5073371;28;20051;-74
2022/04/15 07:03:54;;;;;;;22.08;14.10;;;8.40;99.90;;;;;;5072399;28;20041;-74
2022/04/15 07:06:20;;;;;;;20.23;12.57;;;8.50;99.90;;;;;;5073819;28;20040;-75
2022/04/15 07:08:45;;;;;;;19.85;12.90;;;8.60;99.90;;;;;;5072221;28;20070;-72
2022/04/15 07:11:13;;;;;;;18.90;12.50;;;8.60;99.90;;;;;;5055949;28;20036;-74
2022/04/15 07:13:38;;;;;;;20.45;11.40;;;8.50;99.90;;;;;;5041422;28;20511;-74
2022/04/15 07:16:06;;;;;;;16.45;11.65;;;8.60;99.90;;;;;;5025278;28;20037;-74
2022/04/15 07:18:32;;;;;;;15.73;10.75;;;8.60;99.90;;;;;;5051559;28;20033;-74
2022/04/15 07:20:58;;;;;;;16.15;10.60;;;8.60;99.90;;;;;;5051797;28;20033;-74
2022/04/15 07:23:24;;;;;;;16.23;10.70;;;8.60;99.90;;;;;;5053228;28;20511;-73
2022/04/15 07:25:49;;;;;;;18.00;10.55;;;8.70;99.90;;;;;;5052025;28;20083;-74
2022/04/15 07:28:15;;;;;;;19.30;11.68;;;8.70;99.90;;;;;;5035384;28;20040;-77
2022/04/15 07:30:41;;;;;;;16.15;10.50;;;8.80;99.90;;;;;;5051527;28;20045;-73
2022/04/15 07:33:06;;;;;;;16.17;9.20;;;8.80;99.90;;;;;;5045415;28;20044;-73
2022/04/15 07:35:32;;;;;;;18.02;10.20;;;8.80;99.90;;;;;;5047176;28;20045;-73
2022/04/15 07:37:58;;;;;;;22.52;10.32;;;8.80;99.90;;;;;;5051079;28;20039;-73
2022/04/15 07:40:27;;;;;;;23.55;10.07;;;8.80;99.90;;;;;;5033274;28;20128;-73
2022/04/15 07:42:54;;;;;;;15.80;10.40;;;8.80;99.90;;;;;;5031705;28;20048;-73
2022/04/15 07:45:20;;;;;;;19.80;11.05;;;8.80;99.90;;;;;;5036682;28;20045;-73
2022/04/15 07:47:47;;;;;;;20.15;10.70;;;8.80;99.90;;;;;;5031736;28;20101;-73
2022/04/15 07:50:16;;;;;;;15.38;10.52;;;8.80;99.90;;;;;;5031279;28;20046;-73
2022/04/15 07:52:41;;;;;;;14.25;9.70;;;8.80;99.90;;;;;;5015363;28;20048;-73
2022/04/15 07:55:08;;;;;;;16.15;9.38;;;8.80;99.90;;;;;;5031630;28;20041;-73
2022/04/15 07:57:34;;;;;;;13.27;8.43;;;8.80;99.90;;;;;;5031459;28;20047;-73
2022/04/15 07:59:59;;;;;;;11.90;8.30;;;8.90;99.90;;;;;;5031129;28;20167;-72
2022/04/15 08:02:25;;;;;;;14.27;7.68;;;9.00;99.90;;;;;;5031531;28;20120;-73
2022/04/15 08:04:51;;;;;;;11.57;8.20;;;9.00;99.90;;;;;;5032383;28;20048;-73
2022/04/15 08:07:18;;;;;;;11.98;7.30;;;9.00;99.90;;;;;;5031261;28;20042;-73
2022/04/15 08:09:44;;;;;;;12.00;6.60;;;9.00;99.90;;;;;;5031139;28;20042;-74
2022/04/15 08:12:10;;;;;;;10.25;6.70;;;9.10;99.90;;;;;;5030844;28;20052;-73
2022/04/15 08:14:35;;;;;;;14.48;6.85;;;9.10;99.90;;;;;;5031036;28;20039;-74
2022/04/15 08:17:01;;;;;;;12.05;7.82;;;9.10;99.90;;;;;;5036145;28;20082;-73
2022/04/15 08:19:26;;;;;;;10.45;7.47;;;9.10;99.90;;;;;;5049535;28;20510;-72
2022/04/15 08:21:52;;;;;;;10.45;6.55;;;9.10;99.90;;;;;;5051783;28;20041;-72
2022/04/15 08:24:19;;;;;;;9.63;6.68;;;9.30;99.90;;;;;;5050713;28;20045;-72
2022/04/15 08:26:45;;;;;;;10.60;7.15;;;9.30;99.90;;;;;;5050883;28;20110;-72
2022/04/15 08:29:11;;;;;;;10.00;7.50;;;9.40;99.90;;;;;;5050804;28;20063;-72
2022/04/15 08:31:37;;;;;;;13.20;8.38;;;9.50;99.90;;;;;;5051695;28;20111;-72
2022/04/15 08:34:02;;;;;;;12.35;8.63;;;9.70;99.90;;;;;;5033633;28;20033;-72
2022/04/15 08:36:28;;;;;;;12.13;7.88;;;9.70;99.90;;;;;;5048715;28;20040;-72
2022/04/15 08:38:54;;;;;;;13.07;8.57;;;9.90;99.90;;;;;;5051005;28;20049;-72
2022/04/15 08:41:21;;;;;;;15.73;8.35;;;10.10;99.90;;;;;;5050557;28;20066;-72
2022/04/15 08:43:46;;;;;;;16.40;8.23;;;10.20;99.90;;;;;;5050826;28;20494;-72
2022/04/15 08:46:13;;;;;;;17.30;8.10;;;10.20;99.90;;;;;;5051939;28;20048;-72
2022/04/15 08:48:39;;;;;;;14.93;9.35;;;10.20;99.90;;;;;;5051844;28;20443;-72
2022/04/15 08:51:06;;;;;;;13.77;8.05;;;9.90;99.90;;;;;;5049913;28;20491;-72
2022/04/15 08:53:32;;;;;;;11.98;8.07;;;9.90;99.90;;;;;;5050428;28;20079;-72
2022/04/15 08:55:58;;;;;;;10.82;6.97;;;9.90;99.90;;;;;;5051632;28;20037;-72
2022/04/15 08:58:27;;;;;;;12.70;8.80;;;9.80;99.90;;;;;;5051728;28;20491;-72
2022/04/15 09:00:54;;;;;;;11.02;8.52;;;9.90;99.90;;;;;;5050022;28;20084;-71
2022/04/15 09:03:20;;;;;;;13.05;7.70;;;10.10;99.90;;;;;;5051067;28;20045;-72
2022/04/15 09:05:50;;;;;;;12.23;6.95;;;10.40;99.90;;;;;;5050504;28;20124;-72
2022/04/15 09:08:15;;;;;;;14.15;7.07;;;10.90;99.90;;;;;;5051386;28;20526;-72
2022/04/15 09:10:44;;;;;;;11.73;6.90;;;11.40;99.90;;;;;;5051687;28;20045;-72
2022/04/15 09:13:21;;;;;;;10.98;7.72;;;11.60;99.90;;;;;;5050217;28;20040;-72
2022/04/15 09:15:47;;;;;;;9.10;6.85;;;11.40;99.90;;;;;;5050371;28;20037;-72
2022/04/15 09:18:36;;;;;;;12.40;7.00;;;11.00;99.90;;;;;;5051314;28;20055;-72
2022/04/15 09:21:20;;;;;;;14.90;6.40;;;10.70;99.90;;;;;;5049888;28;20410;-72
2022/04/15 09:23:47;;;;;;;;;;;10.50;99.90;;;;;;5052024;28;20116;-72
2022/04/15 09:26:12;;;;;;;12.25;7.13;;;10.50;99.90;;;;;;5050185;28;19931;-72
2022/04/15 09:28:38;;;;;;;12.52;7.13;;;10.50;99.90;;;;;;5051420;28;20045;-72
2022/04/15 09:31:03;;;;;;;10.75;7.18;;;10.60;99.90;;;;;;5051114;28;20033;-72
2022/04/15 09:33:29;;;;;;;9.25;6.90;;;10.80;99.90;;;;;;5049873;28;20037;-72
2022/04/15 09:35:55;;;;;;;13.77;7.18;;;10.70;99.90;;;;;;5051452;28;20044;-73
2022/04/15 09:38:42;;;;;;;12.25;6.97;;;10.60;99.90;;;;;;5049936;28;20033;-73
2022/04/15 09:41:21;;;;;;;11.07;6.88;;;10.70;99.90;;;;;;5050817;28;20041;-73
2022/04/15 09:43:52;;;;;;;11.38;6.82;;;10.80;99.90;;;;;;5051074;28;20555;-73
2022/04/15 09:46:18;;;;;;;13.60;7.53;;;10.90;99.90;;;;;;5049791;28;20036;-73
2022/04/15 09:49:08;;;;;;;11.10;7.78;;;10.80;99.90;;;;;;5051209;28;20040;-73
2022/04/15 09:51:54;;;;;;;9.50;7.45;;;10.70;99.90;;;;;;5049628;28;20083;-73
2022/04/15 09:54:27;;;;;;;11.30;7.72;;;10.70;99.90;;;;;;5049870;28;20507;-72
2022/04/15 09:56:58;;;;;;;14.88;7.18;;;10.50;99.90;;;;;;5050959;28;20125;-70
2022/04/15 09:59:28;;;;;;;9.50;7.35;;;10.60;99.90;;;;;;5050120;28;20037;-70
2022/04/15 10:02:08;;;;;;;12.40;8.48;;;10.60;99.90;;;;;;5050149;28;20079;-69
2022/04/15 10:04:35;;;;;;;10.82;8.80;;;10.50;99.90;;;;;;5053853;28;20586;-69
2022/04/15 10:07:06;;;;;;;11.32;7.35;;;10.50;99.90;;;;;;5048141;28;20033;-69
2022/04/15 10:09:37;;;;;;;9.98;7.30;;;10.60;99.90;;;;;;5044592;28;20045;-69
2022/04/15 10:12:03;;;;;;;13.13;7.75;;;10.60;99.90;;;;;;5054560;28;20124;-70
2022/04/15 10:14:29;;;;;;;12.02;7.22;;;10.60;99.90;;;;;;5054397;28;20083;-70
2022/04/15 10:16:58;;;;;;;12.07;6.88;;;10.60;99.90;;;;;;5053209;28;20045;-69
2022/04/15 10:19:25;;;;;;;12.00;8.18;;;10.60;99.90;;;;;;5048152;28;20111;-69
2022/04/15 10:21:52;;;;;;;11.45;7.22;;;10.60;99.90;;;;;;5043154;28;20560;-69
2022/04/15 10:24:18;;;;;;;10.00;7.35;;;10.80;99.90;;;;;;5027005;28;20091;-70
2022/04/15 10:26:46;;;;;;;11.05;8.18;;;10.60;99.90;;;;;;5043793;28;20037;-69
2022/04/15 10:29:13;;;;;;;11.68;8.05;;;10.50;99.90;;;;;;5039727;28;20045;-69
2022/04/15 10:31:46;;;;;;;11.75;8.02;;;10.60;99.90;;;;;;5046891;28;20075;-70
2022/04/15 10:34:15;;;;;;;10.23;7.03;;;10.50;99.90;;;;;;5054281;28;20437;-69
2022/04/15 10:36:49;;;;;;;8.07;6.88;;;10.50;99.90;;;;;;5054221;28;20123;-69
2022/04/15 10:39:21;;;;;;;9.52;6.75;;;10.50;99.90;;;;;;5052935;28;20132;-69
2022/04/15 10:41:57;;;;;;;9.18;6.78;;;10.40;99.90;;;;;;5052738;28;20578;-69
2022/04/15 10:44:27;;;;;;;11.73;7.28;;;10.40;99.90;;;;;;5048071;28;20037;-69
2022/04/15 10:47:17;;;;;;;10.98;7.13;;;10.40;99.90;;;;;;5033013;28;20499;-69
2022/04/15 10:50:06;;;;;;;8.70;6.57;;;10.40;99.90;;;;;;5030435;28;20095;-69
2022/04/15 10:52:36;;;;;;;9.45;7.20;;;10.50;99.90;;;;;;5041199;28;20636;-69
2022/04/15 10:55:10;;;;;;;10.60;7.18;;;10.30;99.90;;;;;;5044993;28;20437;-69
2022/04/15 10:57:41;;;;;;;9.65;7.18;;;10.30;99.90;;;;;;5041864;28;20037;-70
2022/04/15 11:03:20;;;;;;;9.88;7.63;;;10.20;99.90;;;;;;5043633;28;20045;-69
2022/04/15 11:05:46;;;;;;;10.32;7.53;;;10.20;99.90;;;;;;5042330;28;20061;-69
2022/04/15 11:08:16;;;;;;;12.45;7.97;;;10.20;99.90;;;;;;5043246;28;20065;-70
2022/04/15 11:11:07;;;;;;;13.05;8.13;;;10.10;99.90;;;;;;5045523;28;20049;-70
2022/04/15 11:14:00;;;;;;;14.55;8.50;;;10.10;99.90;;;;;;5053245;28;20506;-69
2022/04/15 11:16:39;;;;;;;12.00;9.27;;;10.30;99.90;;;;;;5053505;28;20117;-70
2022/04/15 11:19:04;;;;;;;12.68;8.00;;;10.20;99.90;;;;;;5048568;28;20041;-69
2022/04/15 11:21:37;;;;;;;10.23;7.60;;;10.20;99.90;;;;;;5045704;28;20387;-69
2022/04/15 11:24:06;;;;;;;10.25;7.65;;;10.40;99.90;;;;;;5048726;28;20072;-69
2022/04/15 11:26:34;;;;;;;13.05;7.95;;;10.40;99.90;;;;;;5038491;28;20547;-70
2022/04/15 11:29:01;;;;;;;13.60;8.00;;;10.40;99.90;;;;;;5043496;28;20040;-69
2022/04/15 11:31:28;;;;;;;12.48;8.15;;;10.30;99.90;;;;;;5052610;28;20033;-70
2022/04/15 11:33:56;;;;;;;11.27;6.90;;;10.20;99.90;;;;;;5041559;28;20529;-70
2022/04/15 11:36:23;;;;;;;9.35;6.93;;;10.10;99.90;;;;;;5043271;28;20090;-69
2022/04/15 11:38:51;;;;;;;11.55;7.18;;;10.30;99.90;;;;;;5043220;28;20045;-69
2022/04/15 11:41:25;;;;;;;10.32;7.38;;;10.20;99.90;;;;;;5040676;28;20035;-69
2022/04/15 11:43:59;;;;;;;14.55;7.32;;;10.20;99.90;;;;;;5041564;28;20044;-70
2022/04/15 11:46:26;;;;;;;12.18;7.90;;;10.20;99.90;;;;;;5035595;28;20037;-70
2022/04/15 11:48:55;;;;;;;12.90;8.00;;;10.10;99.90;;;;;;5041923;28;20115;-70
2022/04/15 11:51:23;;;;;;;10.13;7.88;;;10.10;99.90;;;;;;5051548;28;20379;-70
2022/04/15 11:53:50;;;;;;;12.85;7.90;;;10.00;99.90;;;;;;5052702;28;20041;-69
2022/04/15 11:56:20;;;;;;;12.00;7.78;;;10.10;99.90;;;;;;5051387;28;20541;-69
2022/04/15 11:58:46;;;;;;;11.13;6.97;;;10.10;99.90;;;;;;5051390;28;20045;-70
2022/04/15 12:01:24;;;;;;;9.73;6.80;;;10.00;99.90;;;;;;5051318;28;20048;-70
2022/04/15 12:03:51;;;;;;;10.05;7.43;;;10.10;99.90;;;;;;5051228;28;20052;-70
2022/04/15 12:06:16;;;;;;;12.48;6.72;;;10.10;99.90;;;;;;5052680;28;20041;-69
2022/04/15 12:08:42;;;;;;;10.93;7.50;;;10.20;99.90;;;;;;5052247;28;20562;-70
2022/04/15 12:11:09;;;;;;;10.98;6.70;;;10.20;99.90;;;;;;5052527;28;20051;-69
2022/04/15 12:13:35;;;;;;;9.98;6.80;;;10.20;99.90;;;;;;5043699;28;20046;-69
2022/04/15 12:16:01;;;;;;;9.90;7.18;;;10.10;99.90;;;;;;5032601;28;20125;-70
2022/04/15 12:18:27;;;;;;;10.75;7.28;;;10.20;99.90;;;;;;5032397;28;20045;-69
2022/04/15 12:20:52;;;;;;;10.95;7.85;;;10.20;99.90;;;;;;5032180;28;20049;-69
2022/04/15 12:23:18;;;;;;;9.75;7.50;;;10.20;99.90;;;;;;5032177;28;20411;-69
2022/04/15 12:26:09;;;;;;;10.32;8.38;;;10.10;99.90;;;;;;5031884;28;20073;-70
2022/04/15 12:31:45;;;;;;;10.43;8.65;;;10.30;99.90;;;;;;5031860;28;20053;-70
2022/04/15 12:34:11;;;;;;;10.20;8.05;;;10.10;99.90;;;;;;5030828;28;20458;-69
2022/04/15 12:36:41;;;;;;;12.68;8.88;;;10.10;99.90;;;;;;5032070;28;20045;-69
2022/04/15 12:39:08;;;;;;;14.05;9.57;;;10.20;99.90;;;;;;5032077;28;20041;-69
2022/04/15 12:41:41;;;;;;;12.82;8.80;;;10.20;99.90;;;;;;5031827;28;20124;-70
2022/04/15 12:44:15;;;;;;;9.73;8.73;;;10.30;99.90;;;;;;5031876;28;20041;-69
2022/04/15 12:46:46;;;;;;;10.45;7.88;;;10.20;99.90;;;;;;5033830;28;20037;-70
2022/04/15 12:49:25;;;;;;;13.60;9.48;;;10.10;99.90;;;;;;5042958;28;20059;-70
2022/04/15 12:51:51;;;;;;;12.48;8.15;;;10.10;99.90;;;;;;5042269;28;20029;-70
2022/04/15 12:54:17;;;;;;;9.48;8.48;;;10.20;99.90;;;;;;5040627;28;20038;-70